METAR Data
IDs: Format: Raw Decoded Include TAF

Data at: 1342 UTC 14 Dec 2019

PPIZ 141256Z AUTO 08005KT 10SM CLR M16/M18 A2964 RMK AO2 SNB21E31 SLP039 P0000 T11611178 FZRANO
PPIZ 140756Z AUTO 06006KT 10SM CLR M17/M18 A2957 RMK AO2 SNE04 SLP018 P0000 T11671183 411221178 FZRANO
PPIZ 140656Z AUTO 07007KT 9SM -SN CLR M17/M18 A2956 RMK AO2 SNE06B39 SLP013 P0000 T11671183 FZRANO
PPIZ 140556Z AUTO 08006KT 9SM -SN CLR M16/M17 A2955 RMK AO2 SLP011 P0000 60000 T11561172 11122 21156 51015 FZRANO
PPIZ 140532Z AUTO 08003KT 3/4SM -SN BR BKN001 M14/M16 A2955 RMK AO2 P0000 FZRANO
PPIZ 140407Z AUTO 11004KT 3/4SM -SN BR OVC003 M12/M13 A2953 RMK AO2 SNB06 P0000 FZRANO
PPIZ 140043Z AUTO 00000KT 3SM -SN BR OVC003 M14/M16 A2948 RMK AO2 SNB00 P0000 FZRANO
PPIZ 140009Z AUTO 13003KT 1 3/4SM -SN BR BKN003 OVC006 M15/M16 A2947 RMK AO2 SNB00 CIG 002V006 P0000 FZRANO
PPIZ 132356Z AUTO 13005KT 10SM OVC008 M15/M17 A2947 RMK AO2 SNE39 CIG 006V010 SLP985 P0000 60000 T11501167 11128 21150 53008 FZRANO
PPIZ 132210Z AUTO 12008KT 4SM -SN BR OVC003 M13/M15 A2947 RMK AO2 P0000 FZRANO
PPIZ 132204Z AUTO 11008KT 1 1/4SM -SN BR OVC003 M13/M15 A2946 RMK AO2 VIS 1/2V4 P0000 FZRANO
PPIZ 132156Z AUTO 11007KT 3/4SM -SN BR OVC003 M13/M15 A2947 RMK AO2 SLP982 P0000 T11331150 FZRANO
PPIZ 132149Z AUTO 11004KT 1/2SM -SN FZFG OVC003 M14/M15 A2946 RMK AO2 P0000 FZRANO
PPIZ 132138Z AUTO 11004KT 3/4SM -SN BR OVC003 M14/M15 A2946 RMK AO2 P0000 FZRANO
PPIZ 132117Z AUTO 10005KT 1 1/4SM -SN BR OVC003 M14/M15 A2945 RMK AO2 P0000 FZRANO
PPIZ 131956Z AUTO 10004KT 1SM -SN BR OVC003 M13/M15 A2945 RMK AO2 SLP977 P0000 T11331150 FZRANO
PPIZ 131710Z AUTO 00000KT 3/4SM -SN BR OVC003 M12/M13 A2946 RMK AO2 P0000 FZRANO
PPIZ 131646Z AUTO 00000KT 3/4SM -SN BR OVC003 M13/M14 A2945 RMK AO2 P0000 FZRANO
PPIZ 131356Z AUTO 09003KT 1/2SM -SN FZFG OVC003 M16/M17 A2951 RMK AO2 SNB46 SLP996 P0000 T11561172 FZRANO
PPIZ 131342Z AUTO 07003KT 1/2SM FZFG OVC003 M16/M17 A2950 RMK AO2 FZRANO
PPIZ 131312Z AUTO 07003KT 10SM OVC003 M17/M19 A2951 RMK AO2 CIG 002V007 FZRANO
PPIZ 131254Z AUTO 00000KT 10SM BKN005 M17/M19 A2952 RMK AO2 SNB06E16 CIG 001V007 P0000 FZRANO
PPIZ 131223Z AUTO 06003KT 1SM BR BKN003 OVC007 M16/M18 A2952 RMK AO2 SNB06E16 P0000 FZRANO
PPIZ 131209Z AUTO 02003KT 1SM -SN BR OVC003 M17/M18 A2953 RMK AO2 SNB06 P0000 FZRANO
PPIZ 131207Z AUTO 02003KT 1 3/4SM -SN BR OVC005 M17/M18 A2953 RMK AO2 SNB06 P0000 FZRANO
PPIZ 131056Z AUTO 04003KT 10SM OVC005 M17/M19 A2953 RMK AO2 CIG 004V008 SLP004 T11721189 FZRANO
PPIZ 131027Z AUTO 36004KT 8SM BKN003 M18/M19 A2954 RMK AO2 FZRANO
PPIZ 130741Z AUTO 04005KT 10SM BKN004 M18/M19 A2954 RMK AO2 FZRANO
PPIZ 130731Z AUTO 04005KT 10SM SCT004 M18/M19 A2953 RMK AO2 FZRANO
PPIZ 130656Z AUTO 03005KT 10SM CLR M18/M19 A2954 RMK AO2 SLP006 T11781194 FZRANO